Maersk Essen — V7UQ8 — position and weather

sailwx.info

Track history (hours):
 
Tides and Currents Weather Stations Pressure Air Temp Water Temp Dewpoint Dewpoint Depression Visibility Wind Speed Wind Dir Waves Ship Positions

Maersk Essen

Last reported at 2017-Nov-18 19:28 UTC. Time now 2017-Nov-18 20:01 UTC.
Position N 49°28' E 000°08'.

Length 367 m; draft 14.2 m.

Type: Ship (hazmat cat A). MMSI: 538004007.

Date/timePositionNaut miles runAvg speedWind from/ knotsBaromVisibWave heightAir tempDewpointWater temp
2017-Nov-18 19:28N 49°28' E 000°08'0 0.0
2017-Nov-18 18:58N 49°28' E 000°08'0 0.0
2017-Nov-18 18:28N 49°28' E 000°08'0 0.0
2017-Nov-18 17:58N 49°28' E 000°08'0 0.0
2017-Nov-18 17:28N 49°28' E 000°08'0 0.0
2017-Nov-18 16:58N 49°28' E 000°08'0 0.0
2017-Nov-18 16:28N 49°28' E 000°08'0 0.0
2017-Nov-18 15:58N 49°28' E 000°08'0 0.0
2017-Nov-18 15:28N 49°28' E 000°08'0 0.0
2017-Nov-18 14:58N 49°28' E 000°08'0 0.0
2017-Nov-18 14:28N 49°28' E 000°08'0 0.0
2017-Nov-18 13:58N 49°28' E 000°08'0 0.0
2017-Nov-18 13:28N 49°28' E 000°08'0 0.0
2017-Nov-18 12:58N 49°28' E 000°08'0 0.0
2017-Nov-18 12:28N 49°28' E 000°08'0 0.0
2017-Nov-18 11:58N 49°28' E 000°08'0 0.0
2017-Nov-18 11:28N 49°28' E 000°08'0 0.0
2017-Nov-18 10:58N 49°28' E 000°08'0 0.0
2017-Nov-18 10:28N 49°28' E 000°08'0 0.0
2017-Nov-18 09:58N 49°28' E 000°08'0 0.0
2017-Nov-18 09:28N 49°28' E 000°08'0 0.0
2017-Nov-18 08:58N 49°28' E 000°08'0 0.0
2017-Nov-18 08:28N 49°28' E 000°08'0 0.0
2017-Nov-18 07:58N 49°28' E 000°08'0 0.0
2017-Nov-18 07:28N 49°28' E 000°08'0 0.0
2017-Nov-18 06:58N 49°28' E 000°08'0 0.0
2017-Nov-18 06:28N 49°28' E 000°08'0 0.0
2017-Nov-18 05:58N 49°28' E 000°08'0 0.0
2017-Nov-18 05:28N 49°28' E 000°08'0 0.0
2017-Nov-18 04:58N 49°28' E 000°08'0 0.0
2017-Nov-18 04:28N 49°28' E 000°08'0 0.0
2017-Nov-18 03:58N 49°28' E 000°08'0 0.0
2017-Nov-18 03:28N 49°28' E 000°08'0 0.0
2017-Nov-18 02:58N 49°28' E 000°08'0 0.0
2017-Nov-18 02:28N 49°28' E 000°08'0 0.0
2017-Nov-18 01:58N 49°28' E 000°08'0 0.0
2017-Nov-18 01:28N 49°28' E 000°08'0 0.0
2017-Nov-18 00:58N 49°28' E 000°08'0 0.0
2017-Nov-18 00:28N 49°28' E 000°08'0 0.0
2017-Nov-17 23:58N 49°28' E 000°08'0 0.0
2017-Nov-17 23:28N 49°28' E 000°08'0 0.0
2017-Nov-17 22:58N 49°28' E 000°08'0 0.0
2017-Nov-17 22:28N 49°28' E 000°08'0 0.0
2017-Nov-17 21:58N 49°28' E 000°08'0 0.0
2017-Nov-17 21:28N 49°28' E 000°08'0 0.0
2017-Nov-17 20:58N 49°28' E 000°08'0 0.0
2017-Nov-17 20:28N 49°28' E 000°08'0 0.0
2017-Nov-17 19:58N 49°28' E 000°08'0 0.8
2017-Nov-17 19:31N 49°27' E 000°09'1 1.8
2017-Nov-17 19:01N 49°28' E 000°08'713.2
2017-Nov-17 18:30N 49°30' W 000°02'612.5
2017-Nov-17 18:01N 49°33' W 000°10'612.2
2017-Nov-17 17:30N 49°39' W 000°12'816.1
2017-Nov-17 17:01N 49°47' W 000°13'917.1
2017-Nov-17 16:30N 49°56' W 000°12'5 9.6
2017-Nov-17 16:00N 50°00' W 000°10'1 1.9
2017-Nov-17 15:30N 50°01' W 000°09'1 1.7
2017-Nov-17 15:00N 50°01' W 000°08'1 1.6
2017-Nov-17 14:30N 50°02' W 000°07'2 4.5
2017-Nov-17 14:00N 50°04' W 000°06'5 9.8
2017-Nov-17 13:30N 50°09' W 000°04'713.7
2017-Nov-17 13:00N 50°16' W 000°03'816.9
2017-Nov-17 12:30N 50°24' W 000°05'713.1
2017-Nov-17 12:00N 50°29' E 000°03'611.5
2017-Nov-17 11:31N 50°31' E 000°11'611.4
2017-Nov-17 11:00N 50°33' E 000°20'612.4
2017-Nov-17 10:30N 50°35' E 000°29'612.4
2017-Nov-17 10:01N 50°39' E 000°37'612.3
2017-Nov-17 09:30N 50°42' E 000°45'612.2
2017-Nov-17 09:00N 50°46' E 000°53'611.9
2017-Nov-17 08:31N 50°49' E 001°00'612.1
2017-Nov-17 08:00N 50°53' E 001°07'611.7
2017-Nov-17 07:30N 50°57' E 001°14'611.8
2017-Nov-17 07:00N 51°01' E 001°22'612.0
2017-Nov-17 06:30N 51°04' E 001°29'612.4
2017-Nov-17 06:00N 51°09' E 001°37'612.5
2017-Nov-17 05:31N 51°13' E 001°44'612.4
2017-Nov-17 05:00N 51°18' E 001°49'612.3
2017-Nov-17 04:30N 51°24' E 001°52'611.9
2017-Nov-17 04:01N 51°30' E 001°52'612.5
2017-Nov-17 03:30N 51°36' E 001°48'612.0
2017-Nov-17 03:01N 51°41' E 001°45'612.0
2017-Nov-17 02:31N 51°47' E 001°44'5 9.8
2017-Nov-17 02:01N 51°52' E 001°41'510.1
2017-Nov-17 01:30N 51°54' E 001°34'713.6
2017-Nov-17 01:00N 51°56' E 001°23'4 7.1
2017-Nov-17 00:30N 51°57' E 001°18'1 1.2
2017-Nov-17 00:00N 51°58' E 001°17'0 0.0
2017-Nov-16 23:30N 51°58' E 001°17'0 0.0
2017-Nov-16 23:00N 51°58' E 001°17'0 0.0
2017-Nov-16 22:31N 51°58' E 001°17'0 0.0
2017-Nov-16 21:58N 51°58' E 001°17'0 0.0
2017-Nov-16 21:28N 51°58' E 001°17'0 0.0
2017-Nov-16 20:58N 51°58' E 001°17'0 0.0
2017-Nov-16 20:31N 51°58' E 001°17'0 0.0
2017-Nov-16 20:00N 51°58' E 001°17'0 0.0
2017-Nov-16 19:31N 51°58' E 001°17'0 0.0
2017-Nov-16 18:57N 51°58' E 001°17'0 0.0
2017-Nov-16 18:31N 51°58' E 001°17'0 0.0
2017-Nov-16 17:58N 51°58' E 001°17'0 0.0
2017-Nov-16 17:28N 51°58' E 001°17'0 0.0
2017-Nov-16 17:00N 51°58' E 001°17'0 0.0
2017-Nov-16 16:30N 51°58' E 001°17'0 0.0
2017-Nov-16 16:00N 51°58' E 001°17'0 0.0
2017-Nov-16 15:28N 51°58' E 001°17'0 0.0
2017-Nov-16 14:58N 51°58' E 001°17'0 0.0
2017-Nov-16 14:28N 51°58' E 001°17'0 0.0
2017-Nov-16 14:00N 51°58' E 001°17'0 0.0
2017-Nov-16 13:31N 51°58' E 001°17'0 0.0
2017-Nov-16 13:00N 51°58' E 001°17'0 0.0
2017-Nov-16 12:31N 51°58' E 001°17'0 0.0
2017-Nov-16 12:01N 51°58' E 001°17'0 0.0
2017-Nov-16 11:30N 51°58' E 001°17'0 0.0
2017-Nov-16 11:00N 51°58' E 001°17'0 0.0
2017-Nov-16 10:31N 51°58' E 001°17'0 0.0
2017-Nov-16 09:57N 51°58' E 001°17'0 0.0
2017-Nov-16 09:31N 51°58' E 001°17'0 0.0
2017-Nov-16 09:00N 51°58' E 001°17'0 0.0
2017-Nov-16 08:31N 51°58' E 001°17'0 0.0
2017-Nov-16 08:00N 51°58' E 001°17'0 0.0
2017-Nov-16 07:30N 51°58' E 001°17'0 0.0
2017-Nov-16 07:00N 51°58' E 001°17'0 0.0
2017-Nov-16 06:30N 51°58' E 001°17'0 0.0
2017-Nov-16 06:00N 51°58' E 001°17'0 0.0
2017-Nov-16 05:30N 51°58' E 001°17'0 0.0
2017-Nov-16 05:00N 51°58' E 001°17'0 0.0
2017-Nov-16 04:31N 51°58' E 001°17'0 0.0
2017-Nov-16 04:00N 51°58' E 001°17'0 0.0
2017-Nov-16 03:30N 51°58' E 001°17'0 0.0
2017-Nov-16 03:00N 51°58' E 001°17'0 0.0
2017-Nov-16 02:30N 51°58' E 001°17'0 0.0
2017-Nov-16 02:01N 51°58' E 001°17'0 0.0
2017-Nov-16 01:31N 51°58' E 001°17'0 0.0
2017-Nov-16 01:00N 51°58' E 001°17'0 0.0
2017-Nov-16 00:31N 51°58' E 001°17'0 0.0
2017-Nov-16 00:01N 51°58' E 001°17'0 0.0
2017-Nov-15 23:30N 51°58' E 001°17'0 0.0
2017-Nov-15 23:00N 51°58' E 001°17'0 0.0
2017-Nov-15 22:31N 51°58' E 001°17'0 0.0
2017-Nov-15 22:00N 51°58' E 001°17'0 0.0
2017-Nov-15 21:30N 51°58' E 001°17'0 0.0
2017-Nov-15 21:00N 51°58' E 001°17'0 1.0
2017-Nov-15 20:31N 51°57' E 001°18'2 3.0
2017-Nov-15 20:00N 51°56' E 001°19'611.3
2017-Nov-15 19:31N 51°56' E 001°28'510.4
2017-Nov-15 19:01N 51°52' E 001°34'4 8.0
2017-Nov-15 18:30N 51°51' E 001°40'1 2.2
2017-Nov-15 18:00N 51°52' E 001°39'3 5.5
2017-Nov-15 17:30N 51°52' E 001°43'2 4.3
2017-Nov-15 17:00N 51°54' E 001°41'0 0.2
2017-Nov-15 16:28N 51°54' E 001°41'0 0.3
2017-Nov-15 15:58N 51°54' E 001°41'0 0.1
2017-Nov-15 15:28N 51°54' E 001°41'0 0.0
2017-Nov-15 14:58N 51°54' E 001°41'0 0.0
2017-Nov-15 14:28N 51°54' E 001°41'0 0.0
2017-Nov-15 13:58N 51°54' E 001°41'0 0.0
2017-Nov-15 13:28N 51°54' E 001°41'0 0.0
2017-Nov-15 12:58N 51°54' E 001°41'0 0.0
2017-Nov-15 12:28N 51°54' E 001°41'0 0.0
2017-Nov-15 11:58N 51°54' E 001°41'0 0.0
2017-Nov-15 11:28N 51°54' E 001°41'0 0.0
2017-Nov-15 10:58N 51°54' E 001°41'0 0.0
2017-Nov-15 10:29N 51°54' E 001°41'0 0.1
2017-Nov-15 09:58N 51°54' E 001°41'0 0.3
2017-Nov-15 09:28N 51°54' E 001°41'0 0.1
2017-Nov-15 08:58N 51°54' E 001°41'0 0.0
2017-Nov-15 08:28N 51°54' E 001°41'0 0.0
2017-Nov-15 07:58N 51°54' E 001°41'0 0.0
2017-Nov-15 07:28N 51°54' E 001°41'0 0.0
2017-Nov-15 06:58N 51°54' E 001°41'0 0.0
2017-Nov-15 06:28N 51°54' E 001°41'0 0.0
2017-Nov-15 05:58N 51°54' E 001°41'0 0.0
2017-Nov-15 05:28N 51°54' E 001°41'0 0.0
2017-Nov-15 04:58N 51°54' E 001°41'0 0.3
2017-Nov-15 04:28N 51°54' E 001°41'0 0.2
2017-Nov-15 03:58N 51°54' E 001°41'0 0.1
2017-Nov-15 03:28N 51°54' E 001°41'0 0.0
2017-Nov-15 02:58N 51°54' E 001°41'0 0.0
2017-Nov-15 02:28N 51°54' E 001°41'0 0.0
2017-Nov-15 01:58N 51°54' E 001°41'0 0.0
2017-Nov-15 01:28N 51°54' E 001°41'0 0.0
2017-Nov-15 00:58N 51°54' E 001°41'0 0.0
2017-Nov-15 00:28N 51°54' E 001°41'0 0.0
2017-Nov-14 23:58N 51°54' E 001°41'0 0.0
2017-Nov-14 23:28N 51°54' E 001°41'0 0.2
2017-Nov-14 22:59N 51°54' E 001°41'3 5.6
2017-Nov-14 22:30N 51°53' E 001°45'611.3
2017-Nov-14 22:00N 51°48' E 001°50'917.5
2017-Nov-14 21:30N 51°39' E 001°50'917.2
2017-Nov-14 21:00N 51°31' E 001°55'713.6
2017-Nov-14 20:30N 51°26' E 002°02'611.8
2017-Nov-14 20:00N 51°23' E 002°09'510.1
2017-Nov-14 19:30N 51°20' E 002°17'612.2
2017-Nov-14 19:00N 51°22' E 002°26'612.4
2017-Nov-14 18:29N 51°23' E 002°36'510.1
2017-Nov-14 18:00N 51°24' E 002°44'612.4
2017-Nov-14 17:31N 51°25' E 002°54'917.6
2017-Nov-14 17:00N 51°24' E 003°08'918.0
2017-Nov-14 16:31N 51°24' E 003°22'815.3
2017-Nov-14 16:01N 51°26' E 003°34'5 9.8
2017-Nov-14 15:30N 51°26' E 003°42'714.5
2017-Nov-14 15:00N 51°21' E 003°51'815.6
2017-Nov-14 14:31N 51°26' E 004°00'713.1
2017-Nov-14 14:00N 51°23' E 004°09'5 9.8
2017-Nov-14 13:30N 51°21' E 004°16'3 6.4
2017-Nov-14 13:00N 51°17' E 004°15'0 0.0
2017-Nov-14 12:30N 51°17' E 004°15'0 0.0
2017-Nov-14 12:00N 51°17' E 004°15'0 0.0
2017-Nov-14 11:30N 51°17' E 004°15'0 0.0
2017-Nov-14 11:00N 51°17' E 004°15'0 0.0
2017-Nov-14 10:30N 51°17' E 004°15'0 0.0
2017-Nov-14 10:00N 51°17' E 004°15'0 0.0
2017-Nov-14 09:30N 51°17' E 004°15'0 0.0
2017-Nov-14 09:00N 51°17' E 004°15'0 0.0
2017-Nov-14 08:30N 51°17' E 004°15'0 0.0
2017-Nov-14 07:57N 51°17' E 004°15'0 0.0
2017-Nov-14 07:27N 51°17' E 004°15'0 0.0
2017-Nov-14 07:00N 51°17' E 004°15'0 0.0
2017-Nov-14 06:30N 51°17' E 004°15'0 0.0
2017-Nov-14 06:00N 51°17' E 004°15'0 0.0
2017-Nov-14 05:30N 51°17' E 004°15'0 0.0
2017-Nov-14 05:00N 51°17' E 004°15'0 0.0
2017-Nov-14 04:30N 51°17' E 004°15'0 0.0
2017-Nov-14 04:00N 51°17' E 004°15'0 0.0
2017-Nov-14 03:30N 51°17' E 004°15'0 0.0
2017-Nov-14 03:00N 51°17' E 004°15'0 0.0
2017-Nov-14 02:30N 51°17' E 004°15'0 0.0
2017-Nov-14 02:00N 51°17' E 004°15'0 0.0
2017-Nov-14 01:30N 51°17' E 004°15'0 0.1
2017-Nov-14 01:00N 51°17' E 004°15'0 0.0
2017-Nov-14 00:30N 51°17' E 004°15'0 0.0
2017-Nov-14 00:00N 51°17' E 004°15'0 0.0
2017-Nov-13 23:30N 51°17' E 004°15'0 0.0
2017-Nov-13 23:00N 51°17' E 004°15'0 0.0
2017-Nov-13 22:30N 51°17' E 004°15'0 0.0
2017-Nov-13 22:00N 51°17' E 004°15'0 0.0
2017-Nov-13 02:00N 51°17' E 004°15'0 0.0
2017-Nov-13 01:30N 51°17' E 004°15'0 0.0
2017-Nov-13 01:00N 51°17' E 004°15'0 0.0
2017-Nov-13 00:30N 51°17' E 004°15'0 0.0
2017-Nov-13 00:00N 51°17' E 004°15'0 0.0
2017-Nov-12 23:30N 51°17' E 004°15'0 0.0
2017-Nov-12 23:00N 51°17' E 004°15'0 0.0
2017-Nov-12 22:30N 51°17' E 004°15'0 0.0
2017-Nov-12 22:00N 51°17' E 004°15'0 0.0
2017-Nov-12 21:30N 51°17' E 004°15'0 0.0
2017-Nov-12 20:57N 51°17' E 004°15'0 0.0
2017-Nov-12 20:30N 51°17' E 004°15'0 0.0
2017-Nov-12 20:00N 51°17' E 004°15'1 1.3
2017-Nov-12 19:30N 51°18' E 004°16'1 2.0
2017-Nov-12 19:00N 51°19' E 004°16'3 6.8
2017-Nov-12 18:30N 51°22' E 004°13'4 7.8
2017-Nov-12 18:00N 51°22' E 004°07'510.2
2017-Nov-12 17:30N 51°26' E 004°01'510.0
2017-Nov-12 17:01N 51°22' E 003°56'510.7
2017-Nov-12 16:30N 51°21' E 003°47'612.3
2017-Nov-12 16:01N 51°26' E 003°41'4 8.9
2017-Nov-12 15:31N 51°25' E 003°34'510.3
2017-Nov-12 15:01N 51°25' E 003°26'714.5
2017-Nov-12 14:31N 51°24' E 003°14'612.0
2017-Nov-12 14:00N 51°24' E 003°05'815.5
2017-Nov-12 13:30N 51°25' E 002°52'713.3
2017-Nov-12 13:00N 51°23' E 002°43'5 9.1
2017-Nov-12 12:30N 51°22' E 002°35'816.1
2017-Nov-12 12:00N 51°20' E 002°23'714.6
2017-Nov-12 11:30N 51°16' E 002°13'816.0
2017-Nov-12 11:00N 51°12' E 002°02'917.7
2017-Nov-12 10:30N 51°08' E 001°49'917.3
2017-Nov-12 10:00N 51°02' E 001°40'918.0
2017-Nov-12 09:30N 50°55' E 001°31'917.5
2017-Nov-12 09:00N 50°47' E 001°26'816.9
2017-Nov-12 08:30N 50°40' E 001°19'3617.2
2017-Nov-12 06:27N 50°23' E 000°30'817.6
2017-Nov-12 06:00N 50°21' E 000°18'917.3
2017-Nov-12 05:30N 50°18' E 000°05'917.5
2017-Nov-12 05:00N 50°16' W 000°08'917.4
2017-Nov-12 04:30N 50°13' W 000°21'917.3
2017-Nov-12 04:00N 50°11' W 000°34'917.3
2017-Nov-12 03:30N 50°09' W 000°47'917.2
2017-Nov-12 03:01N 50°06' W 000°60'917.6
2017-Nov-12 02:30N 50°04' W 001°13'917.4
2017-Nov-12 02:01N 50°02' W 001°26'917.8
2017-Nov-12 01:30N 50°00' W 001°40'917.7
2017-Nov-12 01:00N 49°58' W 001°53'917.9
2017-Nov-12 00:31N 49°56' W 002°07'2017.7
2017-Nov-11 23:24N 49°51' W 002°36'718.3
2017-Nov-11 23:00N 49°50' W 002°47'1218.9
2017-Nov-11 22:23N 49°47' W 003°05'819.1
2017-Nov-11 21:58N 49°44' W 003°16'7618.9
2017-Nov-11 17:58N 49°05' W 004°57'1619.9
2017-Nov-11 17:11N 48°56' W 005°15'319.7
2017-Nov-11 17:00N 48°54' W 005°19'1019.5
2017-Nov-11 16:30N 48°48' W 005°31'1018.7
2017-Nov-11 16:00N 48°40' W 005°39'919.0
2017-Nov-11 15:30N 48°32' W 005°47'1019.0
2017-Nov-11 14:58N 48°24' W 005°56'918.8
2017-Nov-11 14:29N 48°16' W 006°02'1018.1
2017-Nov-11 13:56N 48°06' W 006°07'818.2
2017-Nov-11 13:29N 47°59' W 006°12'1718.7
2017-Nov-11 12:33N 47°43' W 006°24'217.8
2017-Nov-11 12:25N 47°41' W 006°25'818.2
2017-Nov-11 11:58N 47°34' W 006°31'919.0
2017-Nov-11 11:30N 47°26' W 006°37'1019.5
2017-Nov-11 11:00N 47°18' W 006°44'1119.2
2017-Nov-11 10:27N 47°08' W 006°51'919.5
2017-Nov-11 09:59N 47°00' W 006°57'47719.3
2017-Nov-10 09:19N 39°20' W 009°51'619.9
2017-Nov-10 09:00N 39°14' W 009°51'1020.0
2017-Nov-10 08:30N 39°04' W 009°51'1019.9
2017-Nov-10 08:00N 38°54' W 009°51'1019.8
2017-Nov-10 07:30N 38°44' W 009°51'1020.1
2017-Nov-10 07:01N 38°35' W 009°46'1019.9
2017-Nov-10 06:30N 38°27' W 009°38'1020.3
2017-Nov-10 06:00N 38°20' W 009°29'1020.6
2017-Nov-10 05:30N 38°12' W 009°21'1020.2
2017-Nov-10 05:00N 38°05' W 009°12'917.8
2017-Nov-10 04:30N 37°58' W 009°05'5 9.4
2017-Nov-10 04:01N 37°55' W 008°60'611.8
2017-Nov-10 03:31N 37°54' W 008°53'2 4.4
2017-Nov-10 03:01N 37°56' W 008°51'0 0.1
2017-Nov-10 02:31N 37°56' W 008°51'0 0.0
2017-Nov-10 02:00N 37°56' W 008°51'0 0.0
2017-Nov-10 01:28N 37°56' W 008°51'0 0.0
2017-Nov-10 00:58N 37°56' W 008°51'0 0.0
2017-Nov-10 00:28N 37°56' W 008°51'0 0.0
2017-Nov-09 23:58N 37°56' W 008°51'0 0.0
2017-Nov-09 23:28N 37°56' W 008°51'0 0.0
2017-Nov-09 22:58N 37°56' W 008°51'0 0.0
2017-Nov-09 22:28N 37°56' W 008°51'0 0.0
2017-Nov-09 21:58N 37°56' W 008°51'0 0.0
2017-Nov-09 21:28N 37°56' W 008°51'0 0.0
2017-Nov-09 20:58N 37°56' W 008°51'0 0.0
2017-Nov-09 20:28N 37°56' W 008°51'0 0.0
2017-Nov-09 19:58N 37°56' W 008°51'0 0.0
2017-Nov-09 19:28N 37°56' W 008°51'0 0.0
2017-Nov-09 18:58N 37°56' W 008°51'0 0.0
2017-Nov-09 18:28N 37°56' W 008°51'0 0.0
2017-Nov-09 17:58N 37°56' W 008°51'0 0.0
2017-Nov-09 17:28N 37°56' W 008°51'0 0.0
2017-Nov-09 16:58N 37°56' W 008°51'0 0.0
2017-Nov-09 16:28N 37°56' W 008°51'0 0.0
2017-Nov-09 15:58N 37°56' W 008°51'0 0.0
2017-Nov-09 15:28N 37°56' W 008°51'0 0.0
2017-Nov-09 14:58N 37°56' W 008°51'0 0.0
2017-Nov-09 14:28N 37°56' W 008°51'0 0.0
2017-Nov-09 13:58N 37°56' W 008°51'0 0.0
2017-Nov-09 13:28N 37°56' W 008°51'0 0.0
2017-Nov-09 12:58N 37°56' W 008°51'0 0.7
2017-Nov-09 12:30N 37°56' W 008°50'1 2.9
2017-Nov-09 12:01N 37°54' W 008°50'2 4.0
2017-Nov-09 11:30N 37°52' W 008°51'4 8.4
2017-Nov-09 11:01N 37°48' W 008°53'3 6.5
2017-Nov-09 10:30N 37°46' W 008°55'1 1.6
2017-Nov-09 10:00N 37°46' W 008°55'0 0.8
2017-Nov-09 09:30N 37°47' W 008°56'0 0.3
2017-Nov-09 09:00N 37°47' W 008°55'1 1.1
2017-Nov-09 08:30N 37°47' W 008°55'0 0.9
2017-Nov-09 08:00N 37°48' W 008°55'2 3.1
2017-Nov-09 07:30N 37°46' W 008°55'3 5.5
2017-Nov-09 07:00N 37°43' W 008°56'3 5.3
2017-Nov-09 06:30N 37°41' W 008°58'3 5.5
2017-Nov-09 06:00N 37°39' W 008°60'4 7.4
2017-Nov-09 05:30N 37°35' W 009°02'714.2
2017-Nov-09 05:01N 37°29' W 009°05'917.1
2017-Nov-09 04:30N 37°21' W 009°10'4213.7
2017-Nov-09 01:27N 36°41' W 008°53'1517.8
2017-Nov-09 00:35N 36°36' W 008°36'219.8
2017-Nov-09 00:30N 36°35' W 008°34'  
Track history (hours):
 
Tides and Currents Weather Stations Pressure Air Temp Water Temp Dewpoint Dewpoint Depression Visibility Wind Speed Wind Dir Waves Ship Positions

Maersk Essen

Last reported at 2017-Nov-18 19:28 UTC. Time now 2017-Nov-18 20:01 UTC.
Position N 49°28' E 000°08'.

Length 367 m; draft 14.2 m.

Type: Ship (hazmat cat A). MMSI: 538004007.

Date/timePositionNaut miles runAvg speedWind from/ knotsBaromVisibWave heightAir tempDewpointWater temp
2017-Nov-18 19:28N 49°28' E 000°08'0 0.0
2017-Nov-18 18:58N 49°28' E 000°08'0 0.0
2017-Nov-18 18:28N 49°28' E 000°08'0 0.0
2017-Nov-18 17:58N 49°28' E 000°08'0 0.0
2017-Nov-18 17:28N 49°28' E 000°08'0 0.0
2017-Nov-18 16:58N 49°28' E 000°08'0 0.0
2017-Nov-18 16:28N 49°28' E 000°08'0 0.0
2017-Nov-18 15:58N 49°28' E 000°08'0 0.0
2017-Nov-18 15:28N 49°28' E 000°08'0 0.0
2017-Nov-18 14:58N 49°28' E 000°08'0 0.0
2017-Nov-18 14:28N 49°28' E 000°08'0 0.0
2017-Nov-18 13:58N 49°28' E 000°08'0 0.0
2017-Nov-18 13:28N 49°28' E 000°08'0 0.0
2017-Nov-18 12:58N 49°28' E 000°08'0 0.0
2017-Nov-18 12:28N 49°28' E 000°08'0 0.0
2017-Nov-18 11:58N 49°28' E 000°08'0 0.0
2017-Nov-18 11:28N 49°28' E 000°08'0 0.0
2017-Nov-18 10:58N 49°28' E 000°08'0 0.0
2017-Nov-18 10:28N 49°28' E 000°08'0 0.0
2017-Nov-18 09:58N 49°28' E 000°08'0 0.0
2017-Nov-18 09:28N 49°28' E 000°08'0 0.0
2017-Nov-18 08:58N 49°28' E 000°08'0 0.0
2017-Nov-18 08:28N 49°28' E 000°08'0 0.0
2017-Nov-18 07:58N 49°28' E 000°08'0 0.0
2017-Nov-18 07:28N 49°28' E 000°08'0 0.0
2017-Nov-18 06:58N 49°28' E 000°08'0 0.0
2017-Nov-18 06:28N 49°28' E 000°08'0 0.0
2017-Nov-18 05:58N 49°28' E 000°08'0 0.0
2017-Nov-18 05:28N 49°28' E 000°08'0 0.0
2017-Nov-18 04:58N 49°28' E 000°08'0 0.0
2017-Nov-18 04:28N 49°28' E 000°08'0 0.0
2017-Nov-18 03:58N 49°28' E 000°08'0 0.0
2017-Nov-18 03:28N 49°28' E 000°08'0 0.0
2017-Nov-18 02:58N 49°28' E 000°08'0 0.0
2017-Nov-18 02:28N 49°28' E 000°08'0 0.0
2017-Nov-18 01:58N 49°28' E 000°08'0 0.0
2017-Nov-18 01:28N 49°28' E 000°08'0 0.0
2017-Nov-18 00:58N 49°28' E 000°08'0 0.0
2017-Nov-18 00:28N 49°28' E 000°08'0 0.0
2017-Nov-17 23:58N 49°28' E 000°08'0 0.0
2017-Nov-17 23:28N 49°28' E 000°08'0 0.0
2017-Nov-17 22:58N 49°28' E 000°08'0 0.0
2017-Nov-17 22:28N 49°28' E 000°08'0 0.0
2017-Nov-17 21:58N 49°28' E 000°08'0 0.0
2017-Nov-17 21:28N 49°28' E 000°08'0 0.0
2017-Nov-17 20:58N 49°28' E 000°08'0 0.0
2017-Nov-17 20:28N 49°28' E 000°08'0 0.0
2017-Nov-17 19:58N 49°28' E 000°08'0 0.8
2017-Nov-17 19:31N 49°27' E 000°09'1 1.8
2017-Nov-17 19:01N 49°28' E 000°08'713.2
2017-Nov-17 18:30N 49°30' W 000°02'612.5
2017-Nov-17 18:01N 49°33' W 000°10'612.2
2017-Nov-17 17:30N 49°39' W 000°12'816.1
2017-Nov-17 17:01N 49°47' W 000°13'917.1
2017-Nov-17 16:30N 49°56' W 000°12'5 9.6
2017-Nov-17 16:00N 50°00' W 000°10'1 1.9
2017-Nov-17 15:30N 50°01' W 000°09'1 1.7
2017-Nov-17 15:00N 50°01' W 000°08'1 1.6
2017-Nov-17 14:30N 50°02' W 000°07'2 4.5
2017-Nov-17 14:00N 50°04' W 000°06'5 9.8
2017-Nov-17 13:30N 50°09' W 000°04'713.7
2017-Nov-17 13:00N 50°16' W 000°03'816.9
2017-Nov-17 12:30N 50°24' W 000°05'713.1
2017-Nov-17 12:00N 50°29' E 000°03'611.5
2017-Nov-17 11:31N 50°31' E 000°11'611.4
2017-Nov-17 11:00N 50°33' E 000°20'612.4
2017-Nov-17 10:30N 50°35' E 000°29'612.4
2017-Nov-17 10:01N 50°39' E 000°37'612.3
2017-Nov-17 09:30N 50°42' E 000°45'612.2
2017-Nov-17 09:00N 50°46' E 000°53'611.9
2017-Nov-17 08:31N 50°49' E 001°00'612.1
2017-Nov-17 08:00N 50°53' E 001°07'611.7
2017-Nov-17 07:30N 50°57' E 001°14'611.8
2017-Nov-17 07:00N 51°01' E 001°22'612.0
2017-Nov-17 06:30N 51°04' E 001°29'612.4
2017-Nov-17 06:00N 51°09' E 001°37'612.5
2017-Nov-17 05:31N 51°13' E 001°44'612.4
2017-Nov-17 05:00N 51°18' E 001°49'612.3
2017-Nov-17 04:30N 51°24' E 001°52'611.9
2017-Nov-17 04:01N 51°30' E 001°52'612.5
2017-Nov-17 03:30N 51°36' E 001°48'612.0
2017-Nov-17 03:01N 51°41' E 001°45'612.0
2017-Nov-17 02:31N 51°47' E 001°44'5 9.8
2017-Nov-17 02:01N 51°52' E 001°41'510.1
2017-Nov-17 01:30N 51°54' E 001°34'713.6
2017-Nov-17 01:00N 51°56' E 001°23'4 7.1
2017-Nov-17 00:30N 51°57' E 001°18'1 1.2
2017-Nov-17 00:00N 51°58' E 001°17'0 0.0
2017-Nov-16 23:30N 51°58' E 001°17'0 0.0
2017-Nov-16 23:00N 51°58' E 001°17'0 0.0
2017-Nov-16 22:31N 51°58' E 001°17'0 0.0
2017-Nov-16 21:58N 51°58' E 001°17'0 0.0
2017-Nov-16 21:28N 51°58' E 001°17'0 0.0
2017-Nov-16 20:58N 51°58' E 001°17'0 0.0
2017-Nov-16 20:31N 51°58' E 001°17'0 0.0
2017-Nov-16 20:00N 51°58' E 001°17'0 0.0
2017-Nov-16 19:31N 51°58' E 001°17'0 0.0
2017-Nov-16 18:57N 51°58' E 001°17'0 0.0
2017-Nov-16 18:31N 51°58' E 001°17'0 0.0
2017-Nov-16 17:58N 51°58' E 001°17'0 0.0
2017-Nov-16 17:28N 51°58' E 001°17'0 0.0
2017-Nov-16 17:00N 51°58' E 001°17'0 0.0
2017-Nov-16 16:30N 51°58' E 001°17'0 0.0
2017-Nov-16 16:00N 51°58' E 001°17'0 0.0
2017-Nov-16 15:28N 51°58' E 001°17'0 0.0
2017-Nov-16 14:58N 51°58' E 001°17'0 0.0
2017-Nov-16 14:28N 51°58' E 001°17'0 0.0
2017-Nov-16 14:00N 51°58' E 001°17'0 0.0
2017-Nov-16 13:31N 51°58' E 001°17'0 0.0
2017-Nov-16 13:00N 51°58' E 001°17'0 0.0
2017-Nov-16 12:31N 51°58' E 001°17'0 0.0
2017-Nov-16 12:01N 51°58' E 001°17'0 0.0
2017-Nov-16 11:30N 51°58' E 001°17'0 0.0
2017-Nov-16 11:00N 51°58' E 001°17'0 0.0
2017-Nov-16 10:31N 51°58' E 001°17'0 0.0
2017-Nov-16 09:57N 51°58' E 001°17'0 0.0
2017-Nov-16 09:31N 51°58' E 001°17'0 0.0
2017-Nov-16 09:00N 51°58' E 001°17'0 0.0
2017-Nov-16 08:31N 51°58' E 001°17'0 0.0
2017-Nov-16 08:00N 51°58' E 001°17'0 0.0
2017-Nov-16 07:30N 51°58' E 001°17'0 0.0
2017-Nov-16 07:00N 51°58' E 001°17'0 0.0
2017-Nov-16 06:30N 51°58' E 001°17'0 0.0
2017-Nov-16 06:00N 51°58' E 001°17'0 0.0
2017-Nov-16 05:30N 51°58' E 001°17'0 0.0
2017-Nov-16 05:00N 51°58' E 001°17'0 0.0
2017-Nov-16 04:31N 51°58' E 001°17'0 0.0
2017-Nov-16 04:00N 51°58' E 001°17'0 0.0
2017-Nov-16 03:30N 51°58' E 001°17'0 0.0
2017-Nov-16 03:00N 51°58' E 001°17'0 0.0
2017-Nov-16 02:30N 51°58' E 001°17'0 0.0
2017-Nov-16 02:01N 51°58' E 001°17'0 0.0
2017-Nov-16 01:31N 51°58' E 001°17'0 0.0
2017-Nov-16 01:00N 51°58' E 001°17'0 0.0
2017-Nov-16 00:31N 51°58' E 001°17'0 0.0
2017-Nov-16 00:01N 51°58' E 001°17'0 0.0
2017-Nov-15 23:30N 51°58' E 001°17'0 0.0
2017-Nov-15 23:00N 51°58' E 001°17'0 0.0
2017-Nov-15 22:31N 51°58' E 001°17'0 0.0
2017-Nov-15 22:00N 51°58' E 001°17'0 0.0
2017-Nov-15 21:30N 51°58' E 001°17'0 0.0
2017-Nov-15 21:00N 51°58' E 001°17'0 1.0
2017-Nov-15 20:31N 51°57' E 001°18'2 3.0
2017-Nov-15 20:00N 51°56' E 001°19'611.3
2017-Nov-15 19:31N 51°56' E 001°28'510.4
2017-Nov-15 19:01N 51°52' E 001°34'4 8.0
2017-Nov-15 18:30N 51°51' E 001°40'1 2.2
2017-Nov-15 18:00N 51°52' E 001°39'3 5.5
2017-Nov-15 17:30N 51°52' E 001°43'2 4.3
2017-Nov-15 17:00N 51°54' E 001°41'0 0.2
2017-Nov-15 16:28N 51°54' E 001°41'0 0.3
2017-Nov-15 15:58N 51°54' E 001°41'0 0.1
2017-Nov-15 15:28N 51°54' E 001°41'0 0.0
2017-Nov-15 14:58N 51°54' E 001°41'0 0.0
2017-Nov-15 14:28N 51°54' E 001°41'0 0.0
2017-Nov-15 13:58N 51°54' E 001°41'0 0.0
2017-Nov-15 13:28N 51°54' E 001°41'0 0.0
2017-Nov-15 12:58N 51°54' E 001°41'0 0.0
2017-Nov-15 12:28N 51°54' E 001°41'0 0.0
2017-Nov-15 11:58N 51°54' E 001°41'0 0.0
2017-Nov-15 11:28N 51°54' E 001°41'0 0.0
2017-Nov-15 10:58N 51°54' E 001°41'0 0.0
2017-Nov-15 10:29N 51°54' E 001°41'0 0.1
2017-Nov-15 09:58N 51°54' E 001°41'0 0.3
2017-Nov-15 09:28N 51°54' E 001°41'0 0.1
2017-Nov-15 08:58N 51°54' E 001°41'0 0.0
2017-Nov-15 08:28N 51°54' E 001°41'0 0.0
2017-Nov-15 07:58N 51°54' E 001°41'0 0.0
2017-Nov-15 07:28N 51°54' E 001°41'0 0.0
2017-Nov-15 06:58N 51°54' E 001°41'0 0.0
2017-Nov-15 06:28N 51°54' E 001°41'0 0.0
2017-Nov-15 05:58N 51°54' E 001°41'0 0.0
2017-Nov-15 05:28N 51°54' E 001°41'0 0.0
2017-Nov-15 04:58N 51°54' E 001°41'0 0.3
2017-Nov-15 04:28N 51°54' E 001°41'0 0.2
2017-Nov-15 03:58N 51°54' E 001°41'0 0.1
2017-Nov-15 03:28N 51°54' E 001°41'0 0.0
2017-Nov-15 02:58N 51°54' E 001°41'0 0.0
2017-Nov-15 02:28N 51°54' E 001°41'0 0.0
2017-Nov-15 01:58N 51°54' E 001°41'0 0.0
2017-Nov-15 01:28N 51°54' E 001°41'0 0.0
2017-Nov-15 00:58N 51°54' E 001°41'0 0.0
2017-Nov-15 00:28N 51°54' E 001°41'0 0.0
2017-Nov-14 23:58N 51°54' E 001°41'0 0.0
2017-Nov-14 23:28N 51°54' E 001°41'0 0.2
2017-Nov-14 22:59N 51°54' E 001°41'3 5.6
2017-Nov-14 22:30N 51°53' E 001°45'611.3
2017-Nov-14 22:00N 51°48' E 001°50'917.5
2017-Nov-14 21:30N 51°39' E 001°50'917.2
2017-Nov-14 21:00N 51°31' E 001°55'713.6
2017-Nov-14 20:30N 51°26' E 002°02'611.8
2017-Nov-14 20:00N 51°23' E 002°09'510.1
2017-Nov-14 19:30N 51°20' E 002°17'612.2
2017-Nov-14 19:00N 51°22' E 002°26'612.4
2017-Nov-14 18:29N 51°23' E 002°36'510.1
2017-Nov-14 18:00N 51°24' E 002°44'612.4
2017-Nov-14 17:31N 51°25' E 002°54'917.6
2017-Nov-14 17:00N 51°24' E 003°08'918.0
2017-Nov-14 16:31N 51°24' E 003°22'815.3
2017-Nov-14 16:01N 51°26' E 003°34'5 9.8
2017-Nov-14 15:30N 51°26' E 003°42'714.5
2017-Nov-14 15:00N 51°21' E 003°51'815.6
2017-Nov-14 14:31N 51°26' E 004°00'713.1
2017-Nov-14 14:00N 51°23' E 004°09'5 9.8
2017-Nov-14 13:30N 51°21' E 004°16'3 6.4
2017-Nov-14 13:00N 51°17' E 004°15'0 0.0
2017-Nov-14 12:30N 51°17' E 004°15'0 0.0
2017-Nov-14 12:00N 51°17' E 004°15'0 0.0
2017-Nov-14 11:30N 51°17' E 004°15'0 0.0
2017-Nov-14 11:00N 51°17' E 004°15'0 0.0
2017-Nov-14 10:30N 51°17' E 004°15'0 0.0
2017-Nov-14 10:00N 51°17' E 004°15'0 0.0
2017-Nov-14 09:30N 51°17' E 004°15'0 0.0
2017-Nov-14 09:00N 51°17' E 004°15'0 0.0
2017-Nov-14 08:30N 51°17' E 004°15'0 0.0
2017-Nov-14 07:57N 51°17' E 004°15'0 0.0
2017-Nov-14 07:27N 51°17' E 004°15'0 0.0
2017-Nov-14 07:00N 51°17' E 004°15'0 0.0
2017-Nov-14 06:30N 51°17' E 004°15'0 0.0
2017-Nov-14 06:00N 51°17' E 004°15'0 0.0
2017-Nov-14 05:30N 51°17' E 004°15'0 0.0
2017-Nov-14 05:00N 51°17' E 004°15'0 0.0
2017-Nov-14 04:30N 51°17' E 004°15'0 0.0
2017-Nov-14 04:00N 51°17' E 004°15'0 0.0
2017-Nov-14 03:30N 51°17' E 004°15'0 0.0
2017-Nov-14 03:00N 51°17' E 004°15'0 0.0
2017-Nov-14 02:30N 51°17' E 004°15'0 0.0
2017-Nov-14 02:00N 51°17' E 004°15'0 0.0
2017-Nov-14 01:30N 51°17' E 004°15'0 0.1
2017-Nov-14 01:00N 51°17' E 004°15'0 0.0
2017-Nov-14 00:30N 51°17' E 004°15'0 0.0
2017-Nov-14 00:00N 51°17' E 004°15'0 0.0
2017-Nov-13 23:30N 51°17' E 004°15'0 0.0
2017-Nov-13 23:00N 51°17' E 004°15'0 0.0
2017-Nov-13 22:30N 51°17' E 004°15'0 0.0
2017-Nov-13 22:00N 51°17' E 004°15'0 0.0
2017-Nov-13 02:00N 51°17' E 004°15'0 0.0
2017-Nov-13 01:30N 51°17' E 004°15'0 0.0
2017-Nov-13 01:00N 51°17' E 004°15'0 0.0
2017-Nov-13 00:30N 51°17' E 004°15'0 0.0
2017-Nov-13 00:00N 51°17' E 004°15'0 0.0
2017-Nov-12 23:30N 51°17' E 004°15'0 0.0
2017-Nov-12 23:00N 51°17' E 004°15'0 0.0
2017-Nov-12 22:30N 51°17' E 004°15'0 0.0
2017-Nov-12 22:00N 51°17' E 004°15'0 0.0
2017-Nov-12 21:30N 51°17' E 004°15'0 0.0
2017-Nov-12 20:57N 51°17' E 004°15'0 0.0
2017-Nov-12 20:30N 51°17' E 004°15'0 0.0
2017-Nov-12 20:00N 51°17' E 004°15'1 1.3
2017-Nov-12 19:30N 51°18' E 004°16'1 2.0
2017-Nov-12 19:00N 51°19' E 004°16'3 6.8
2017-Nov-12 18:30N 51°22' E 004°13'4 7.8
2017-Nov-12 18:00N 51°22' E 004°07'510.2
2017-Nov-12 17:30N 51°26' E 004°01'510.0
2017-Nov-12 17:01N 51°22' E 003°56'510.7
2017-Nov-12 16:30N 51°21' E 003°47'612.3
2017-Nov-12 16:01N 51°26' E 003°41'4 8.9
2017-Nov-12 15:31N 51°25' E 003°34'510.3
2017-Nov-12 15:01N 51°25' E 003°26'714.5
2017-Nov-12 14:31N 51°24' E 003°14'612.0
2017-Nov-12 14:00N 51°24' E 003°05'815.5
2017-Nov-12 13:30N 51°25' E 002°52'713.3
2017-Nov-12 13:00N 51°23' E 002°43'5 9.1
2017-Nov-12 12:30N 51°22' E 002°35'816.1
2017-Nov-12 12:00N 51°20' E 002°23'714.6
2017-Nov-12 11:30N 51°16' E 002°13'816.0
2017-Nov-12 11:00N 51°12' E 002°02'917.7
2017-Nov-12 10:30N 51°08' E 001°49'917.3
2017-Nov-12 10:00N 51°02' E 001°40'918.0
2017-Nov-12 09:30N 50°55' E 001°31'917.5
2017-Nov-12 09:00N 50°47' E 001°26'816.9
2017-Nov-12 08:30N 50°40' E 001°19'3617.2
2017-Nov-12 06:27N 50°23' E 000°30'817.6
2017-Nov-12 06:00N 50°21' E 000°18'917.3
2017-Nov-12 05:30N 50°18' E 000°05'917.5
2017-Nov-12 05:00N 50°16' W 000°08'917.4
2017-Nov-12 04:30N 50°13' W 000°21'917.3
2017-Nov-12 04:00N 50°11' W 000°34'917.3
2017-Nov-12 03:30N 50°09' W 000°47'917.2
2017-Nov-12 03:01N 50°06' W 000°60'917.6
2017-Nov-12 02:30N 50°04' W 001°13'917.4
2017-Nov-12 02:01N 50°02' W 001°26'917.8
2017-Nov-12 01:30N 50°00' W 001°40'917.7
2017-Nov-12 01:00N 49°58' W 001°53'917.9
2017-Nov-12 00:31N 49°56' W 002°07'2017.7
2017-Nov-11 23:24N 49°51' W 002°36'718.3
2017-Nov-11 23:00N 49°50' W 002°47'1218.9
2017-Nov-11 22:23N 49°47' W 003°05'819.1
2017-Nov-11 21:58N 49°44' W 003°16'7618.9
2017-Nov-11 17:58N 49°05' W 004°57'1619.9
2017-Nov-11 17:11N 48°56' W 005°15'319.7
2017-Nov-11 17:00N 48°54' W 005°19'1019.5
2017-Nov-11 16:30N 48°48' W 005°31'1018.7
2017-Nov-11 16:00N 48°40' W 005°39'919.0
2017-Nov-11 15:30N 48°32' W 005°47'1019.0
2017-Nov-11 14:58N 48°24' W 005°56'918.8
2017-Nov-11 14:29N 48°16' W 006°02'1018.1
2017-Nov-11 13:56N 48°06' W 006°07'818.2
2017-Nov-11 13:29N 47°59' W 006°12'1718.7
2017-Nov-11 12:33N 47°43' W 006°24'217.8
2017-Nov-11 12:25N 47°41' W 006°25'818.2
2017-Nov-11 11:58N 47°34' W 006°31'919.0
2017-Nov-11 11:30N 47°26' W 006°37'1019.5
2017-Nov-11 11:00N 47°18' W 006°44'1119.2
2017-Nov-11 10:27N 47°08' W 006°51'919.5
2017-Nov-11 09:59N 47°00' W 006°57'47719.3
2017-Nov-10 09:19N 39°20' W 009°51'619.9
2017-Nov-10 09:00N 39°14' W 009°51'1020.0
2017-Nov-10 08:30N 39°04' W 009°51'1019.9
2017-Nov-10 08:00N 38°54' W 009°51'1019.8
2017-Nov-10 07:30N 38°44' W 009°51'1020.1
2017-Nov-10 07:01N 38°35' W 009°46'1019.9
2017-Nov-10 06:30N 38°27' W 009°38'1020.3
2017-Nov-10 06:00N 38°20' W 009°29'1020.6
2017-Nov-10 05:30N 38°12' W 009°21'1020.2
2017-Nov-10 05:00N 38°05' W 009°12'917.8
2017-Nov-10 04:30N 37°58' W 009°05'5 9.4
2017-Nov-10 04:01N 37°55' W 008°60'611.8
2017-Nov-10 03:31N 37°54' W 008°53'2 4.4
2017-Nov-10 03:01N 37°56' W 008°51'0 0.1
2017-Nov-10 02:31N 37°56' W 008°51'0 0.0
2017-Nov-10 02:00N 37°56' W 008°51'0 0.0
2017-Nov-10 01:28N 37°56' W 008°51'0 0.0
2017-Nov-10 00:58N 37°56' W 008°51'0 0.0
2017-Nov-10 00:28N 37°56' W 008°51'0 0.0
2017-Nov-09 23:58N 37°56' W 008°51'0 0.0
2017-Nov-09 23:28N 37°56' W 008°51'0 0.0
2017-Nov-09 22:58N 37°56' W 008°51'0 0.0
2017-Nov-09 22:28N 37°56' W 008°51'0 0.0
2017-Nov-09 21:58N 37°56' W 008°51'0 0.0
2017-Nov-09 21:28N 37°56' W 008°51'0 0.0
2017-Nov-09 20:58N 37°56' W 008°51'0 0.0
2017-Nov-09 20:28N 37°56' W 008°51'0 0.0
2017-Nov-09 19:58N 37°56' W 008°51'0 0.0
2017-Nov-09 19:28N 37°56' W 008°51'0 0.0
2017-Nov-09 18:58N 37°56' W 008°51'0 0.0
2017-Nov-09 18:28N 37°56' W 008°51'0 0.0
2017-Nov-09 17:58N 37°56' W 008°51'0 0.0
2017-Nov-09 17:28N 37°56' W 008°51'0 0.0
2017-Nov-09 16:58N 37°56' W 008°51'0 0.0
2017-Nov-09 16:28N 37°56' W 008°51'0 0.0
2017-Nov-09 15:58N 37°56' W 008°51'0 0.0
2017-Nov-09 15:28N 37°56' W 008°51'0 0.0
2017-Nov-09 14:58N 37°56' W 008°51'0 0.0
2017-Nov-09 14:28N 37°56' W 008°51'0 0.0
2017-Nov-09 13:58N 37°56' W 008°51'0 0.0
2017-Nov-09 13:28N 37°56' W 008°51'0 0.0
2017-Nov-09 12:58N 37°56' W 008°51'0 0.7
2017-Nov-09 12:30N 37°56' W 008°50'1 2.9
2017-Nov-09 12:01N 37°54' W 008°50'2 4.0
2017-Nov-09 11:30N 37°52' W 008°51'4 8.4
2017-Nov-09 11:01N 37°48' W 008°53'3 6.5
2017-Nov-09 10:30N 37°46' W 008°55'1 1.6
2017-Nov-09 10:00N 37°46' W 008°55'0 0.8
2017-Nov-09 09:30N 37°47' W 008°56'0 0.3
2017-Nov-09 09:00N 37°47' W 008°55'1 1.1
2017-Nov-09 08:30N 37°47' W 008°55'0 0.9
2017-Nov-09 08:00N 37°48' W 008°55'2 3.1
2017-Nov-09 07:30N 37°46' W 008°55'3 5.5
2017-Nov-09 07:00N 37°43' W 008°56'3 5.3
2017-Nov-09 06:30N 37°41' W 008°58'3 5.5
2017-Nov-09 06:00N 37°39' W 008°60'4 7.4
2017-Nov-09 05:30N 37°35' W 009°02'714.2
2017-Nov-09 05:01N 37°29' W 009°05'917.1
2017-Nov-09 04:30N 37°21' W 009°10'4213.7
2017-Nov-09 01:27N 36°41' W 008°53'1517.8
2017-Nov-09 00:35N 36°36' W 008°36'219.8
2017-Nov-09 00:30N 36°35' W 008°34'  

Dump ship's entire track history